Airfield :
LOGIN :

Register | Disclaimer

   EN    FR    IT 

 










Legend :    VFR   Marginal VFR   IFR   Intensive IFR   Very Intensive IFR
Visi :
Ceiling :
>= 8 km
>= 3000ft
5 to 8 km
1000 to 3000 ft
1500m to 5 km
500 to 1000 ft
800 to 1500m
200 to 500 ft
< 800m
< 200 ft
Symbols :   Thunderstorms  Fog  Heavy snow  Heavy precipitations  Wind > 20 kt
SIGMETs :     Misc.  Thunderstorms  Icing  Turbulence  Mountain Waves  Volcanic Ashes






- Airport Elevation : 23 ft
- IATA code : XFW


EDHI - Hamburg Finkenwerder

CURRENT METAR :
  • 080920Z 12005KT 080V170 CAVOK 16/05 Q1026

EXPIRED METARs :
  • 080850Z 12006KT 060V160 CAVOK 14/04 Q1027
  • 080820Z 12006KT 070V160 CAVOK 13/03 Q1027
  • 080750Z 12008KT 090V150 CAVOK 12/03 Q1027
  • 080720Z 12007KT 080V150 CAVOK 11/02 Q1027

TAF TAF EDHI
Valid from the 08 at 09:00 until the 08 at 18:00 UTC


080800Z 0809/0818 14010KT CAVOK
BECMG 0812/0814 23008KT
BECMG 0815/0818 30005KT



MET'MAP, your aeronautical weather chart ! - Copyright ORBIFLY December 2007 - Disclaimer

ORBIFLY MET'MAP TEAM :

Programming & Development : Alexandra Zaïnal
Concept & original design : Baudouin d'Aumeries
Assistance for programming : Marc-Olivier Méhu
Technical & hardware support : Manuel Goepfert

Contact : metmap@orbifly.com




SOURCES & CREDITS :

   NOAA